Archival Weather

Granbury Rgnl

Granbury, Texas (KGDJ)

Report from: Monday, January 29, 2024 9:55 PM UTC
Current time: Tuesday, June 18, 2024 11:46 AM UTC

Current weather – Weather history – Daily summaries
Weather forecast

Temperature22.5°C (72.5°F)
Dew point3.4°C (38.1°F)
Winds 4 kts (2.1 m/s, 4.6 mph) West-Northwest (290°)
Visibility10 mi. (16.1 km)
Clouds Sky clear
Altimeter30.21 in.Hg (1023 mB)
Relative humidity29 %
Density altitude664 ft. (202 m)
Remarks Fully automated report
Automated weather observing station with precipitation discriminator
Flight conditions Visual Meteorological Conditions
Raw dataKGDJ 292155Z AUTO 29004KT 10SM CLR 23/03 A3021 RMK AO2 T02250034
An error has occurred. This application may no longer respond until reloaded. Reload 🗙